createdAt,value
2017-10-17T00:00:53.368Z,101124.82
2017-10-17T00:03:21.051Z,101122.99
2017-10-17T00:05:48.831Z,101122.39
2017-10-17T00:08:16.524Z,101123.49
2017-10-17T00:10:44.239Z,101121.57
2017-10-17T00:13:12.028Z,101116.69
2017-10-17T00:15:39.778Z,101119.23
2017-10-17T00:18:07.701Z,101110.36
2017-10-17T00:20:35.431Z,101116.31
2017-10-17T00:23:03.155Z,101108.31
2017-10-17T00:25:31.022Z,101104.70
2017-10-17T00:27:58.740Z,101104.14
2017-10-17T00:30:28.143Z,101102.77
2017-10-17T00:33:00.471Z,101089.94
2017-10-17T00:35:30.879Z,101092.02
2017-10-17T00:38:00.507Z,101096.91
2017-10-17T00:40:28.384Z,101094.70
2017-10-17T00:42:56.943Z,101086.64
2017-10-17T00:45:24.803Z,101087.41
2017-10-17T00:47:52.649Z,101088.31
2017-10-17T00:50:20.435Z,101084.86
2017-10-17T00:52:48.263Z,101091.36
2017-10-17T00:55:16.087Z,101081.92
2017-10-17T00:57:43.872Z,101089.09
2017-10-17T01:00:11.746Z,101085.53
2017-10-17T01:02:39.662Z,101082.52
2017-10-17T01:05:07.531Z,101083.73
2017-10-17T01:07:35.330Z,101083.59
2017-10-17T01:10:03.054Z,101084.83
2017-10-17T01:12:30.791Z,101084.41
2017-10-17T01:14:58.532Z,101083.20
2017-10-17T01:17:26.315Z,101082.58
2017-10-17T01:20:00.031Z,101080.31
2017-10-17T01:22:27.896Z,101082.43
2017-10-17T01:24:55.679Z,101080.38
2017-10-17T01:27:23.603Z,101083.07
2017-10-17T01:29:51.363Z,101076.91
2017-10-17T01:32:19.175Z,101076.14
2017-10-17T01:34:46.906Z,101070.69
2017-10-17T01:37:14.699Z,101063.78
2017-10-17T01:39:42.480Z,101066.34
2017-10-17T01:42:10.207Z,101071.02
2017-10-17T01:44:47.928Z,101069.88
2017-10-17T01:47:20.119Z,101072.26
2017-10-17T01:49:48.711Z,101079.62
2017-10-17T01:52:16.431Z,101077.53
2017-10-17T01:54:50.034Z,101075.66
2017-10-17T01:57:17.842Z,101073.28
2017-10-17T01:59:54.366Z,101072.14
2017-10-17T02:02:22.096Z,101085.56
2017-10-17T02:04:49.814Z,101086.05
2017-10-17T02:07:17.663Z,101084.23
2017-10-17T02:10:04.863Z,101087.95
2017-10-17T02:12:32.839Z,101095.69
2017-10-17T02:15:00.547Z,101090.21
2017-10-17T02:17:28.990Z,101090.14
2017-10-17T02:19:56.832Z,101093.75
2017-10-17T02:22:25.403Z,101091.48
2017-10-17T02:24:53.104Z,101090.00
2017-10-17T02:27:22.659Z,101088.31
2017-10-17T02:29:56.279Z,101091.71
2017-10-17T02:32:24.134Z,101086.48
2017-10-17T02:34:56.582Z,101088.59
2017-10-17T02:37:24.405Z,101091.47
2017-10-17T02:39:52.119Z,101084.92
2017-10-17T02:42:19.851Z,101083.34
2017-10-17T02:44:47.763Z,101080.94
2017-10-17T02:47:15.536Z,101079.36
2017-10-17T02:49:43.324Z,101077.41
2017-10-17T02:52:16.423Z,101076.42
2017-10-17T02:54:44.301Z,101071.47
2017-10-17T02:57:12.127Z,101068.61
2017-10-17T02:59:39.963Z,101067.77
2017-10-17T03:02:17.566Z,101068.05
2017-10-17T03:04:47.280Z,101071.05
2017-10-17T03:07:15.143Z,101063.98
2017-10-17T03:09:42.951Z,101073.00
2017-10-17T03:12:10.848Z,101073.06
2017-10-17T03:14:38.579Z,101074.13
2017-10-17T03:17:06.390Z,101067.27
2017-10-17T03:19:34.155Z,101071.61
2017-10-17T03:22:05.492Z,101067.79
2017-10-17T03:24:47.660Z,101080.44
2017-10-17T03:27:15.472Z,101078.61
2017-10-17T03:29:43.280Z,101079.31
2017-10-17T03:32:11.208Z,101073.87
2017-10-17T03:34:39.679Z,101079.52
2017-10-17T03:37:12.038Z,101077.27
2017-10-17T03:39:58.279Z,101076.44
2017-10-17T03:42:30.052Z,101074.10
2017-10-17T03:44:57.815Z,101077.37
2017-10-17T03:47:37.255Z,101070.93
2017-10-17T03:56:26.618Z,101068.91
2017-10-17T03:58:55.281Z,101069.21
2017-10-17T04:01:28.854Z,101066.58
2017-10-17T04:03:59.375Z,101065.67
2017-10-17T04:09:21.243Z,101055.53
2017-10-17T04:11:48.968Z,101057.94
2017-10-17T04:14:18.307Z,101057.87
2017-10-17T04:16:52.403Z,101062.44
2017-10-17T04:19:40.700Z,101054.48
2017-10-17T04:22:08.500Z,101056.95
2017-10-17T04:30:57.863Z,101059.52
2017-10-17T04:33:28.419Z,101062.77
2017-10-17T04:35:56.951Z,101063.47
2017-10-17T04:38:24.819Z,101069.33
2017-10-17T04:40:52.575Z,101069.76
2017-10-17T04:43:32.129Z,101074.50
2017-10-17T04:46:09.788Z,101072.10
2017-10-17T04:51:41.190Z,101064.66
2017-10-17T04:57:37.395Z,101064.16
2017-10-17T05:00:07.812Z,101064.85
2017-10-17T05:05:57.088Z,101059.52
2017-10-17T05:08:32.534Z,101059.06
2017-10-17T05:11:16.407Z,101058.36
2017-10-17T05:16:57.999Z,101059.03
2017-10-17T05:22:21.651Z,101059.91
2017-10-17T05:24:52.043Z,101056.78
2017-10-17T05:30:30.123Z,101055.88
2017-10-17T05:33:00.622Z,101066.55
2017-10-17T05:35:28.340Z,101067.55
2017-10-17T05:37:56.111Z,101070.55
2017-10-17T05:40:23.835Z,101075.73
2017-10-17T05:42:51.539Z,101078.17
2017-10-17T05:45:19.364Z,101084.77
2017-10-17T05:48:01.062Z,101084.07
2017-10-17T05:50:34.499Z,101081.40
2017-10-17T05:53:02.155Z,101085.84
2017-10-17T05:55:29.769Z,101082.80
2017-10-17T05:57:57.444Z,101091.23
2017-10-17T06:00:25.067Z,101091.88
2017-10-17T06:02:52.682Z,101079.39
2017-10-17T06:05:20.409Z,101084.22
2017-10-17T06:07:48.035Z,101089.88
2017-10-17T06:10:15.702Z,101087.02
2017-10-17T06:12:43.426Z,101088.11
2017-10-17T06:15:11.127Z,101084.33
2017-10-17T06:17:38.735Z,101096.91
2017-10-17T06:20:06.395Z,101090.64
2017-10-17T06:22:34.011Z,101094.22
2017-10-17T06:25:01.692Z,101091.47
2017-10-17T06:27:29.360Z,101094.42
2017-10-17T06:29:56.975Z,101099.31
2017-10-17T06:32:24.602Z,101100.47
2017-10-17T06:34:52.272Z,101101.71
2017-10-17T06:37:19.887Z,101099.19
2017-10-17T06:39:47.554Z,101096.98
2017-10-17T06:42:15.234Z,101097.28
2017-10-17T06:44:42.860Z,101098.37
2017-10-17T06:47:10.555Z,101101.17
2017-10-17T06:49:38.325Z,101101.83
2017-10-17T06:52:06.010Z,101097.34
2017-10-17T06:54:33.631Z,101099.47
2017-10-17T06:57:01.351Z,101098.63
2017-10-17T06:59:29.000Z,101094.08
2017-10-17T07:01:56.622Z,101087.89
2017-10-17T07:04:24.335Z,101091.44
2017-10-17T07:06:52.009Z,101099.28
2017-10-17T07:09:19.654Z,101101.09
2017-10-17T07:11:47.322Z,101098.88
2017-10-17T07:14:15.061Z,101098.73
2017-10-17T07:16:42.791Z,101092.73
2017-10-17T07:19:10.618Z,101088.73
2017-10-17T07:21:38.236Z,101087.13
2017-10-17T07:24:05.855Z,101084.64
2017-10-17T07:26:33.523Z,101087.27
2017-10-17T07:29:01.138Z,101082.25
2017-10-17T07:31:28.812Z,101086.41
2017-10-17T07:33:56.539Z,101083.64
2017-10-17T07:36:24.156Z,101084.37
2017-10-17T07:38:51.784Z,101081.16
2017-10-17T07:41:19.511Z,101073.69
2017-10-17T07:43:47.143Z,101071.39
2017-10-17T07:46:14.779Z,101064.78
2017-10-17T07:48:42.431Z,101066.08
2017-10-17T07:51:10.131Z,101069.50
2017-10-17T07:53:37.743Z,101064.71
2017-10-17T07:56:05.416Z,101064.66
2017-10-17T07:58:33.040Z,101055.94
2017-10-17T08:01:00.704Z,101054.30
2017-10-17T08:03:28.375Z,101048.16
2017-10-17T08:05:55.988Z,101052.72
2017-10-17T08:08:23.631Z,101051.94
2017-10-17T08:10:51.352Z,101059.65
2017-10-17T08:13:19.032Z,101055.23
2017-10-17T08:15:46.655Z,101057.77
2017-10-17T08:18:14.400Z,101058.28
2017-10-17T08:20:42.075Z,101064.28
2017-10-17T08:23:09.698Z,101060.30
2017-10-17T08:25:37.384Z,101052.42
2017-10-17T08:28:05.055Z,101051.47
2017-10-17T08:30:32.667Z,101054.44
2017-10-17T08:33:00.328Z,101048.75
2017-10-17T08:35:28.008Z,101044.84
2017-10-17T08:37:55.707Z,101036.03
2017-10-17T08:40:23.403Z,101041.16
2017-10-17T08:42:51.023Z,101035.80
2017-10-17T08:45:18.639Z,101032.14
2017-10-17T08:47:46.424Z,101026.97
2017-10-17T08:50:14.107Z,101037.03
2017-10-17T08:52:41.784Z,101041.73
2017-10-17T08:55:09.600Z,101041.53
2017-10-17T08:57:37.276Z,101031.92
2017-10-17T09:00:04.956Z,101042.72
2017-10-17T09:02:32.681Z,101041.67
2017-10-17T09:05:00.296Z,101043.25
2017-10-17T09:07:27.967Z,101041.00
2017-10-17T09:09:55.623Z,101041.70
2017-10-17T09:12:23.238Z,101045.50
2017-10-17T09:14:50.849Z,101042.24
2017-10-17T09:17:18.599Z,101047.05
2017-10-17T09:19:46.263Z,101044.22
2017-10-17T09:22:13.870Z,101039.81
2017-10-17T09:24:41.555Z,101040.37
2017-10-17T09:27:09.195Z,101038.34
2017-10-17T09:29:36.859Z,101038.95
2017-10-17T09:32:04.519Z,101034.52
2017-10-17T09:34:32.221Z,101033.08
2017-10-17T09:36:59.891Z,101036.02
2017-10-17T09:39:27.603Z,101036.98
2017-10-17T09:41:55.208Z,101022.88
2017-10-17T09:44:22.871Z,101027.10
2017-10-17T09:46:50.520Z,101029.97
2017-10-17T09:49:18.178Z,101017.93
2017-10-17T09:51:45.779Z,101017.88
2017-10-17T09:54:13.476Z,101012.38
2017-10-17T09:56:41.139Z,101006.87
2017-10-17T09:59:08.738Z,100998.15
2017-10-17T10:01:36.446Z,100997.49
2017-10-17T10:04:04.104Z,100992.76
2017-10-17T10:06:31.759Z,100992.95
2017-10-17T10:08:59.403Z,100986.73
2017-10-17T10:11:27.064Z,100984.27
2017-10-17T10:13:54.676Z,100986.14
2017-10-17T10:16:22.326Z,100985.09
2017-10-17T10:18:50.044Z,100973.03
2017-10-17T10:21:17.695Z,100975.13
2017-10-17T10:23:45.362Z,100971.15
2017-10-17T10:26:12.960Z,100967.08
2017-10-17T10:28:40.564Z,100970.41
2017-10-17T10:31:08.210Z,100966.48
2017-10-17T10:33:35.814Z,100958.00
2017-10-17T10:36:03.528Z,100955.98
2017-10-17T10:38:31.209Z,100957.03
2017-10-17T10:40:58.872Z,100945.80
2017-10-17T10:43:26.475Z,100944.73
2017-10-17T10:45:54.204Z,100943.66
2017-10-17T10:48:21.811Z,100940.09
2017-10-17T10:50:49.421Z,100943.66
2017-10-17T10:53:17.083Z,100940.39
2017-10-17T10:55:44.687Z,100931.84
2017-10-17T10:58:12.349Z,100934.55
2017-10-17T11:00:40.100Z,100932.72
2017-10-17T11:03:07.768Z,100922.80
2017-10-17T11:05:35.451Z,100925.01
2017-10-17T11:08:03.125Z,100917.35
2017-10-17T11:10:30.735Z,100909.74
2017-10-17T11:12:58.440Z,100903.63
2017-10-17T11:15:26.102Z,100901.28
2017-10-17T11:17:53.711Z,100901.31
2017-10-17T11:20:21.328Z,100901.05
2017-10-17T11:22:48.970Z,100895.59
2017-10-17T11:25:16.636Z,100888.45
2017-10-17T11:27:44.295Z,100893.48
2017-10-17T11:30:12.055Z,100882.78
2017-10-17T11:32:39.656Z,100886.42
2017-10-17T11:35:07.319Z,100878.91
2017-10-17T11:37:34.976Z,100877.65
2017-10-17T11:40:02.591Z,100883.75
2017-10-17T11:42:42.119Z,100867.62
2017-10-17T11:45:09.832Z,100859.75
2017-10-17T11:47:37.551Z,100863.95
2017-10-17T11:50:05.263Z,100848.70
2017-10-17T11:52:32.867Z,100852.01
2017-10-17T11:55:00.535Z,100850.16
2017-10-17T11:57:28.187Z,100848.19
2017-10-17T11:59:55.799Z,100836.80
2017-10-17T12:02:23.479Z,100831.13
2017-10-17T12:04:51.158Z,100830.97
2017-10-17T12:07:18.755Z,100834.17
2017-10-17T12:09:46.427Z,100836.03
2017-10-17T12:12:14.190Z,100833.84
2017-10-17T12:14:41.855Z,100824.80
2017-10-17T12:17:09.464Z,100826.36
2017-10-17T12:19:37.136Z,100819.89
2017-10-17T12:22:04.831Z,100819.46
2017-10-17T12:24:32.489Z,100813.00
2017-10-17T12:27:00.135Z,100816.37
2017-10-17T12:29:27.750Z,100815.47
2017-10-17T12:31:55.451Z,100812.02
2017-10-17T12:34:23.154Z,100806.56
2017-10-17T12:36:50.815Z,100807.91
2017-10-17T12:39:18.483Z,100797.92
2017-10-17T12:41:46.139Z,100799.06
2017-10-17T12:44:13.809Z,100804.11
2017-10-17T12:46:41.523Z,100797.59
2017-10-17T12:49:09.251Z,100798.73
2017-10-17T12:51:36.876Z,100790.32
2017-10-17T12:54:04.543Z,100799.23
2017-10-17T12:56:32.273Z,100793.88
2017-10-17T12:58:59.923Z,100795.49
2017-10-17T13:01:27.583Z,100791.12
2017-10-17T13:03:55.226Z,100792.19
2017-10-17T13:06:22.832Z,100790.27
2017-10-17T13:08:50.467Z,100793.62
2017-10-17T13:11:18.206Z,100792.41
2017-10-17T13:13:45.875Z,100789.15
2017-10-17T13:16:13.507Z,100788.17
2017-10-17T13:18:41.218Z,100782.20
2017-10-17T13:21:08.822Z,100781.19
2017-10-17T13:23:36.499Z,100783.27
2017-10-17T13:26:04.159Z,100782.90
2017-10-17T13:28:31.771Z,100778.00
2017-10-17T13:30:59.366Z,100783.69
2017-10-17T13:33:27.011Z,100776.67
2017-10-17T13:35:54.684Z,100777.56
2017-10-17T13:38:22.287Z,100772.66
2017-10-17T13:40:49.954Z,100774.58
2017-10-17T13:43:17.607Z,100775.06
2017-10-17T13:45:45.279Z,100769.06
2017-10-17T13:48:12.939Z,100777.52
2017-10-17T13:50:40.546Z,100759.06
2017-10-17T13:53:08.151Z,100767.30
2017-10-17T13:55:35.856Z,100761.19
2017-10-17T13:58:03.455Z,100765.25
2017-10-17T14:00:31.063Z,100764.44
2017-10-17T14:02:58.718Z,100765.34
2017-10-17T14:05:26.374Z,100761.12
2017-10-17T14:07:54.342Z,100759.36
2017-10-17T14:10:22.052Z,100757.44
2017-10-17T14:12:49.659Z,100754.24
2017-10-17T14:15:17.320Z,100756.09
2017-10-17T14:17:44.975Z,100748.95
2017-10-17T14:20:12.582Z,100750.53
2017-10-17T14:22:40.251Z,100754.30
2017-10-17T14:25:07.907Z,100752.80
2017-10-17T14:27:35.576Z,100754.41
2017-10-17T14:30:03.248Z,100760.40
2017-10-17T14:32:30.971Z,100750.55
2017-10-17T14:34:58.579Z,100760.09
2017-10-17T14:37:26.189Z,100752.38
2017-10-17T14:39:53.835Z,100749.36
2017-10-17T14:42:21.501Z,100746.84
2017-10-17T14:44:49.159Z,100740.19
2017-10-17T14:47:16.881Z,100744.64
2017-10-17T14:49:44.491Z,100744.44
2017-10-17T14:52:12.151Z,100739.52
2017-10-17T14:54:39.855Z,100744.14
2017-10-17T14:57:07.459Z,100743.44
2017-10-17T14:59:35.067Z,100745.95
2017-10-17T15:02:02.723Z,100742.22
2017-10-17T15:04:30.331Z,100745.63
2017-10-17T15:06:57.935Z,100742.05
2017-10-17T15:09:25.640Z,100749.75
2017-10-17T15:11:53.316Z,100747.28
2017-10-17T15:14:20.987Z,100743.55
2017-10-17T15:16:48.700Z,100750.41
2017-10-17T15:19:16.327Z,100749.80
2017-10-17T15:21:43.999Z,100756.81
2017-10-17T15:24:11.650Z,100758.87
2017-10-17T15:26:39.299Z,100750.98
2017-10-17T15:29:06.919Z,100755.69
2017-10-17T15:31:34.589Z,100764.47
2017-10-17T15:34:02.288Z,100760.81
2017-10-17T15:36:29.955Z,100761.66
2017-10-17T15:38:57.598Z,100761.98
2017-10-17T15:41:25.268Z,100767.67
2017-10-17T15:43:52.875Z,100769.25
2017-10-17T15:46:20.535Z,100768.52
2017-10-17T15:48:48.142Z,100773.17
2017-10-17T15:51:15.823Z,100771.36
2017-10-17T15:53:43.479Z,100778.47
2017-10-17T15:56:11.144Z,100773.20
2017-10-17T15:58:38.751Z,100771.38
2017-10-17T16:01:06.472Z,100778.34
2017-10-17T16:03:34.075Z,100774.64
2017-10-17T16:06:01.679Z,100774.28
2017-10-17T16:08:29.410Z,100780.57
2017-10-17T16:10:57.010Z,100776.98
2017-10-17T16:13:24.706Z,100779.03
2017-10-17T16:15:52.397Z,100777.94
2017-10-17T16:18:20.007Z,100781.10
2017-10-17T16:20:47.668Z,100783.05
2017-10-17T16:23:15.386Z,100786.34
2017-10-17T16:25:43.051Z,100786.59
2017-10-17T16:28:10.847Z,100785.94
2017-10-17T16:30:38.536Z,100787.44
2017-10-17T16:33:06.207Z,100789.14
2017-10-17T16:35:33.819Z,100786.70
2017-10-17T16:38:01.535Z,100781.83
2017-10-17T16:40:29.211Z,100781.66
2017-10-17T16:42:56.896Z,100789.30
2017-10-17T16:45:24.559Z,100790.42
2017-10-17T16:47:52.236Z,100791.86
2017-10-17T16:50:19.945Z,100790.37
2017-10-17T16:52:47.604Z,100788.77
2017-10-17T16:55:15.215Z,100786.28
2017-10-17T16:57:42.874Z,100784.77
2017-10-17T17:00:10.685Z,100780.94
2017-10-17T17:02:38.286Z,100784.67
2017-10-17T17:05:06.021Z,100775.03
2017-10-17T17:07:33.736Z,100781.70
2017-10-17T17:10:01.464Z,100776.37
2017-10-17T17:12:29.131Z,100778.12
2017-10-17T17:14:56.803Z,100781.12
2017-10-17T17:17:24.475Z,100780.09
2017-10-17T17:19:52.092Z,100781.14
2017-10-17T17:22:19.880Z,100776.04
2017-10-17T17:24:47.551Z,100778.73
2017-10-17T17:27:15.217Z,100775.92
2017-10-17T17:29:42.947Z,100778.38
2017-10-17T17:32:10.555Z,100772.12
2017-10-17T17:34:38.231Z,100779.27
2017-10-17T17:37:05.883Z,100774.76
2017-10-17T17:39:33.503Z,100771.73
2017-10-17T17:42:01.163Z,100772.11
2017-10-17T17:44:28.835Z,100771.36
2017-10-17T17:46:56.440Z,100775.34
2017-10-17T17:49:24.100Z,100769.54
2017-10-17T17:51:51.914Z,100772.83
2017-10-17T17:54:19.514Z,100774.94
2017-10-17T17:56:47.123Z,100776.23
2017-10-17T17:59:14.776Z,100774.05
2017-10-17T18:01:42.464Z,100773.63
2017-10-17T18:04:10.110Z,100775.23
2017-10-17T18:06:37.823Z,100766.28
2017-10-17T18:09:05.460Z,100767.79
2017-10-17T18:11:33.123Z,100776.28
2017-10-17T18:14:00.834Z,100776.28
2017-10-17T18:16:28.548Z,100766.37
2017-10-17T18:18:56.162Z,100772.94
2017-10-17T18:21:23.807Z,100767.36
2017-10-17T18:23:51.411Z,100763.51
2017-10-17T18:26:19.010Z,100765.40
2017-10-17T18:28:46.660Z,100765.98
2017-10-17T18:31:14.268Z,100767.34
2017-10-17T18:33:41.871Z,100765.08
2017-10-17T18:36:09.567Z,100761.70
2017-10-17T18:38:37.191Z,100756.29
2017-10-17T18:41:04.799Z,100764.23
2017-10-17T18:43:32.455Z,100762.11
2017-10-17T18:46:00.060Z,100756.54
2017-10-17T18:48:27.667Z,100762.20
2017-10-17T18:50:55.310Z,100759.70
2017-10-17T18:53:22.927Z,100757.99
2017-10-17T18:55:50.532Z,100757.48
2017-10-17T18:58:18.315Z,100765.28
2017-10-17T19:00:45.941Z,100762.33
2017-10-17T19:03:13.617Z,100768.26
2017-10-17T19:05:41.356Z,100766.00
2017-10-17T19:08:08.970Z,100759.63
2017-10-17T19:10:36.579Z,100760.52
2017-10-17T19:13:04.239Z,100760.91
2017-10-17T19:15:32.707Z,100762.47
2017-10-17T19:18:00.372Z,100761.77
2017-10-17T19:20:28.067Z,100763.20
2017-10-17T19:22:55.687Z,100765.52
2017-10-17T19:25:23.351Z,100765.95
2017-10-17T19:27:51.059Z,100763.14
2017-10-17T19:30:18.666Z,100763.57
2017-10-17T19:32:46.335Z,100760.62
2017-10-17T19:35:14.002Z,100768.64
2017-10-17T19:37:41.599Z,100760.67
2017-10-17T19:40:09.207Z,100769.03
2017-10-17T19:42:36.852Z,100761.02
2017-10-17T19:45:04.464Z,100764.69
2017-10-17T19:47:32.063Z,100763.06
2017-10-17T19:49:59.791Z,100767.39
2017-10-17T19:52:27.390Z,100770.48
2017-10-17T19:54:54.991Z,100771.33
2017-10-17T19:57:22.766Z,100773.90
2017-10-17T19:59:50.434Z,100769.47
2017-10-17T20:02:18.091Z,100772.28
2017-10-17T20:04:45.745Z,100770.20
2017-10-17T20:07:13.356Z,100776.34
2017-10-17T20:09:41.020Z,100770.83
2017-10-17T20:12:08.675Z,100766.78
2017-10-17T20:14:36.287Z,100767.69
2017-10-17T20:17:03.956Z,100772.09
2017-10-17T20:19:31.664Z,100771.55
2017-10-17T20:21:59.290Z,100778.30
2017-10-17T20:24:26.927Z,100775.27
2017-10-17T20:26:54.666Z,100774.31
2017-10-17T20:29:22.271Z,100777.44
2017-10-17T20:31:49.893Z,100777.02
2017-10-17T20:34:17.553Z,100777.90
2017-10-17T20:36:45.155Z,100776.77
2017-10-17T20:39:12.763Z,100776.88
2017-10-17T20:41:40.482Z,100776.64
2017-10-17T20:44:08.140Z,100775.67
2017-10-17T20:46:35.802Z,100774.95
2017-10-17T20:49:03.455Z,100776.26
2017-10-17T20:51:31.131Z,100773.25
2017-10-17T20:53:58.768Z,100777.90
2017-10-17T20:56:26.431Z,100774.89
2017-10-17T20:58:54.041Z,100769.73
2017-10-17T21:01:21.651Z,100770.36
2017-10-17T21:03:49.355Z,100768.08
2017-10-17T21:06:17.032Z,100769.09
2017-10-17T21:08:44.695Z,100776.86
2017-10-17T21:11:12.439Z,100766.42
2017-10-17T21:13:40.111Z,100768.58
2017-10-17T21:16:07.731Z,100768.66
2017-10-17T21:18:35.443Z,100768.61
2017-10-17T21:21:03.066Z,100774.61
2017-10-17T21:23:30.673Z,100768.45
2017-10-17T21:25:58.375Z,100767.91
2017-10-17T21:28:25.980Z,100760.91
2017-10-17T21:30:53.643Z,100765.63
2017-10-17T21:33:21.287Z,100772.05
2017-10-17T21:35:48.895Z,100773.25
2017-10-17T21:38:16.499Z,100780.49
2017-10-17T21:40:44.166Z,100776.97
2017-10-17T21:43:11.777Z,100777.65
2017-10-17T21:45:39.383Z,100770.58
2017-10-17T21:48:07.100Z,100779.11
2017-10-17T21:50:34.707Z,100779.53
2017-10-17T21:53:02.311Z,100770.92
2017-10-17T21:55:30.026Z,100772.45
2017-10-17T21:57:57.627Z,100769.93
2017-10-17T22:00:37.028Z,100771.28
2017-10-17T22:03:04.631Z,100772.63
2017-10-17T22:05:32.227Z,100765.79
2017-10-17T22:07:59.868Z,100773.38
2017-10-17T22:10:27.468Z,100770.77
2017-10-17T22:12:55.072Z,100773.95
2017-10-17T22:15:22.732Z,100772.70
2017-10-17T22:17:50.339Z,100769.92
2017-10-17T22:20:18.009Z,100764.28
2017-10-17T22:22:45.655Z,100763.77
2017-10-17T22:25:13.263Z,100766.13
2017-10-17T22:27:40.927Z,100761.73
2017-10-17T22:30:08.581Z,100759.63
2017-10-17T22:32:36.187Z,100765.93
2017-10-17T22:35:03.791Z,100766.95
2017-10-17T22:37:31.471Z,100766.02
2017-10-17T22:39:59.136Z,100762.55
2017-10-17T22:42:26.747Z,100762.55
2017-10-17T22:44:54.399Z,100762.63
2017-10-17T22:47:22.000Z,100763.48
2017-10-17T22:49:49.692Z,100761.77
2017-10-17T22:52:17.365Z,100765.23
2017-10-17T22:54:44.985Z,100763.78
2017-10-17T22:57:12.599Z,100763.34
2017-10-17T22:59:40.324Z,100763.34
2017-10-17T23:02:07.940Z,100765.09
2017-10-17T23:04:35.556Z,100759.13
2017-10-17T23:07:03.313Z,100762.00
2017-10-17T23:09:30.984Z,100759.97
2017-10-17T23:11:58.607Z,100758.78
2017-10-17T23:14:26.273Z,100756.48
2017-10-17T23:17:05.772Z,100752.53
2017-10-17T23:19:45.044Z,100756.91
2017-10-17T23:22:12.708Z,100748.72
2017-10-17T23:24:40.323Z,100748.72
2017-10-17T23:27:07.986Z,100745.69
2017-10-17T23:29:35.595Z,100748.80
2017-10-17T23:32:03.263Z,100746.45
2017-10-17T23:34:30.971Z,100741.09
2017-10-17T23:36:58.631Z,100738.55
2017-10-17T23:39:26.292Z,100736.13
2017-10-17T23:41:54.015Z,100737.47
2017-10-17T23:44:21.683Z,100736.97
2017-10-17T23:46:49.287Z,100738.87
2017-10-17T23:49:16.934Z,100736.11
2017-10-17T23:51:44.584Z,100731.85
2017-10-17T23:54:12.207Z,100732.55
2017-10-17T23:56:39.933Z,100732.56
2017-10-17T23:59:07.532Z,100731.18
